Time;durP1;ratioP1;P1;durP2;ratioP2;P2;SDS_P1;SDS_P2;PMS_P1;PMS_P2;Temp;Humidity;BMP_temperature;BMP_pressure;BME280_temperature;BME280_humidity;BME280_pressure;Samples;Min_cycle;Max_cycle;Signal;HPM_P1;HPM_P2
2022/10/23 00:00:58;;;;;;;;;10.00;10.00;;;;;19.36;62.41;100570.31;5110944;27;44958;-72
2022/10/23 00:03:23;;;;;;;;;14.00;11.00;;;;;19.32;62.38;100547.81;5116279;27;45147;-73
2022/10/23 00:05:48;;;;;;;;;15.33;12.00;;;;;19.34;62.42;100554.09;5126170;27;45166;-72
2022/10/23 00:08:13;;;;;;;;;18.67;16.00;;;;;19.37;62.55;100554.06;5126063;27;45038;-71
2022/10/23 00:10:41;;;;;;;;;18.00;15.00;;;;;19.43;62.59;100555.78;5117336;27;45074;-72
2022/10/23 00:13:06;;;;;;;;;13.33;11.67;;;;;19.47;62.15;100546.72;5119230;27;45407;-72
2022/10/23 00:15:34;;;;;;;;;7.00;7.00;;;;;19.33;62.32;100519.78;5124735;27;49869;-72
2022/10/23 00:17:59;;;;;;;;;14.33;7.67;;;;;19.47;62.33;100544.00;5131804;27;45185;-72
2022/10/23 00:20:25;;;;;;;;;6.00;6.00;;;;;19.47;62.47;100538.56;5129200;27;45083;-72
2022/10/23 00:22:50;;;;;;;;;14.00;11.33;;;;;19.50;62.13;100543.91;5114163;27;46368;-72
2022/10/23 00:25:17;;;;;;;;;19.00;14.67;;;;;19.51;62.23;100541.19;5109670;27;45176;-72
2022/10/23 00:27:42;;;;;;;;;13.00;9.67;;;;;19.52;62.09;100536.69;5115416;27;45222;-72
2022/10/23 00:30:09;;;;;;;;;11.33;10.00;;;;;19.54;61.94;100532.16;5113620;27;45122;-72
2022/10/23 00:32:34;;;;;;;;;7.00;3.67;;;;;19.51;62.07;100522.22;5117484;27;45291;-72
2022/10/23 00:34:59;;;;;;;;;8.67;7.33;;;;;19.55;61.71;100530.31;5118294;27;45044;-73
2022/10/23 00:37:25;;;;;;;;;6.67;4.67;;;;;19.36;62.06;100499.91;5098443;27;45132;-72
2022/10/23 00:39:50;;;;;;;;;9.33;5.00;;;;;19.21;61.92;100473.91;5115741;27;45149;-71
2022/10/23 00:42:19;;;;;;;;;4.00;4.00;;;;;19.53;62.16;100519.50;5126531;27;45312;-72
2022/10/23 00:44:44;;;;;;;;;5.67;5.67;;;;;19.53;61.96;100527.63;5104647;27;45423;-72
2022/10/23 00:47:11;;;;;;;;;5.00;5.00;;;;;19.53;62.34;100524.91;5117615;27;45052;-72
2022/10/23 00:49:36;;;;;;;;;5.00;3.33;;;;;19.55;61.86;100514.06;5120591;27;45329;-70
2022/10/23 00:52:06;;;;;;;;;3.00;2.33;;;;;19.52;61.67;100512.31;5121970;27;45396;-72
2022/10/23 00:54:38;;;;;;;;;4.00;4.00;;;;;19.36;61.67;100483.63;5126739;27;45084;-72
2022/10/23 00:57:06;;;;;;;;;4.00;4.00;;;;;19.40;61.60;100483.59;5115319;27;45350;-72
2022/10/23 00:59:32;;;;;;;;;2.00;2.00;;;;;19.51;61.65;100499.66;5111966;27;45055;-72
2022/10/23 01:01:58;;;;;;;;;2.00;2.00;;;;;19.52;61.76;100498.75;5110253;27;45162;-72
2022/10/23 01:04:25;;;;;;;;;4.00;3.00;;;;;19.45;61.44;100472.66;5112091;27;45072;-72
2022/10/23 01:07:02;;;;;;;;;9.67;9.67;;;;;19.53;61.49;100476.13;5120321;27;45150;-72
2022/10/23 01:09:34;;;;;;;;;4.33;3.67;;;;;19.43;61.42;100453.72;5121367;27;45019;-72
2022/10/23 01:12:17;;;;;;;;;3.00;3.00;;;;;19.49;61.71;100463.56;5118823;27;49019;-72
2022/10/23 01:14:54;;;;;;;;;5.00;5.00;;;;;19.48;61.18;100467.19;5125789;27;45119;-72
2022/10/23 01:17:58;;;;;;;;;9.67;9.67;;;;;19.40;60.89;100444.72;5118088;27;45039;-72
2022/10/23 01:20:30;;;;;;;;;6.00;5.00;;;;;19.47;60.93;100458.19;5061772;27;44947;-72
2022/10/23 01:23:07;;;;;;;;;3.33;3.33;;;;;19.48;60.83;100457.25;5111147;27;45323;-72
2022/10/23 01:25:45;;;;;;;;;2.67;2.67;;;;;19.46;60.71;100450.97;5114334;27;45176;-72
2022/10/23 01:28:17;;;;;;;;;4.33;2.67;;;;;19.47;60.51;100433.78;5118449;27;45110;-72
2022/10/23 01:30:43;;;;;;;;;3.00;3.00;;;;;19.46;60.61;100434.69;5119433;27;45102;-72
2022/10/23 01:33:13;;;;;;;;;2.33;2.33;;;;;19.43;60.42;100436.56;5128390;27;45174;-72
2022/10/23 01:35:49;;;;;;;;;2.00;2.00;;;;;19.39;60.42;100422.19;5116879;27;45244;-72
2022/10/23 01:38:24;;;;;;;;;4.00;2.00;;;;;19.36;60.33;100408.66;5122816;27;45111;-73
2022/10/23 01:41:27;;;;;;;;;2.00;2.00;;;;;18.81;60.52;100323.72;5115475;27;45182;-72
2022/10/23 01:43:52;;;;;;;;;1.67;1.67;;;;;19.34;60.57;100432.19;5081187;27;45311;-72
2022/10/23 01:46:18;;;;;;;;;3.67;3.00;;;;;19.28;60.82;100435.88;5110903;27;45110;-72
2022/10/23 01:48:50;;;;;;;;;2.33;2.33;;;;;19.20;60.73;100417.94;5119807;27;45273;-72
2022/10/23 01:51:17;;;;;;;;;2.67;2.00;;;;;19.25;60.81;100424.19;5122826;27;44930;-72
2022/10/23 01:53:46;;;;;;;;;3.00;1.33;;;;;19.18;60.99;100431.50;5113259;27;45391;-70
2022/10/23 01:56:17;;;;;;;;;5.67;2.00;;;;;18.93;61.10;100393.94;5132164;27;46422;-72
2022/10/23 01:58:46;;;;;;;;;2.67;2.67;;;;;19.12;61.28;100416.25;5120372;27;46320;-73
2022/10/23 02:01:13;;;;;;;;;2.33;2.33;;;;;19.13;61.14;100411.72;5115511;27;45678;-72
2022/10/23 02:03:42;;;;;;;;;1.67;1.67;;;;;19.14;61.18;100409.00;5121821;27;46103;-71
2022/10/23 02:06:08;;;;;;;;;2.67;2.00;;;;;19.14;61.53;100422.53;5128339;27;45020;-72
2022/10/23 02:08:33;;;;;;;;;2.33;2.00;;;;;18.80;61.29;100348.97;5098804;27;45174;-72
2022/10/23 02:11:02;;;;;;;;;2.00;2.00;;;;;19.15;61.16;100401.75;5114444;27;45375;-72
2022/10/23 02:13:33;;;;;;;;;4.00;3.00;;;;;19.08;61.39;100378.41;5120494;27;45924;-72
2022/10/23 02:16:01;;;;;;;;;3.67;2.00;;;;;19.19;61.32;100395.41;5118742;27;45141;-72
2022/10/23 02:18:36;;;;;;;;;10.67;8.33;;;;;19.18;61.21;100387.28;5120578;27;45325;-72
2022/10/23 02:21:10;;;;;;;;;4.00;2.00;;;;;19.17;61.50;100383.66;5120435;27;45182;-73
2022/10/23 02:23:50;;;;;;;;;4.00;2.33;;;;;19.21;61.34;100382.72;5108604;27;45806;-72
2022/10/23 02:26:27;;;;;;;;;2.33;2.33;;;;;19.25;61.30;100391.69;5121074;27;44968;-71
2022/10/23 02:29:47;;;;;;;;;4.67;3.67;;;;;19.25;61.34;100372.72;5120158;27;45075;-72
2022/10/23 02:32:14;;;;;;;;;2.67;2.00;;;;;19.27;61.31;100365.47;5076667;27;45380;-73
2022/10/23 02:34:40;;;;;;;;;3.00;3.00;;;;;19.24;61.22;100362.84;5116494;27;45594;-73
2022/10/23 02:37:05;;;;;;;;;5.00;2.00;;;;;18.92;61.52;100315.44;5115762;27;45384;-72
2022/10/23 02:39:31;;;;;;;;;3.00;1.33;;;;;19.20;61.38;100358.38;5113797;27;45581;-72
2022/10/23 02:42:01;;;;;;;;;2.33;2.33;;;;;19.11;61.49;100338.63;5120592;27;45133;-72
2022/10/23 02:44:54;;;;;;;;;3.00;3.00;;;;;19.12;61.85;100353.06;5114314;27;45490;-72
2022/10/23 02:47:38;;;;;;;;;4.00;3.00;;;;;19.11;62.12;100351.28;5111894;27;45409;-73
2022/10/23 02:50:20;;;;;;;;;2.00;2.00;;;;;19.14;62.17;100349.41;5099701;27;45560;-72
2022/10/23 02:53:02;;;;;;;;;4.00;3.00;;;;;19.14;62.06;100335.00;5101093;27;45276;-72
2022/10/23 02:56:12;;;;;;;;;1.00;1.00;;;;;19.15;62.20;100337.69;5109632;27;45484;-72
2022/10/23 02:58:55;;;;;;;;;3.00;3.00;;;;;19.11;62.33;100337.75;5014423;28;45361;-72
2022/10/23 03:01:32;;;;;;;;;3.67;3.33;;;;;19.09;62.51;100326.00;5104809;27;45286;-73
2022/10/23 03:03:59;;;;;;;;;3.67;3.67;;;;;19.12;62.57;100328.69;5103889;27;45536;-72
2022/10/23 03:06:25;;;;;;;;;1.33;1.33;;;;;19.12;62.63;100318.75;5108013;27;45479;-72
2022/10/23 03:08:53;;;;;;;;;6.33;6.33;;;;;19.11;62.64;100316.09;5107359;27;45464;-72
2022/10/23 03:11:19;;;;;;;;;3.00;3.00;;;;;19.01;62.92;100309.03;5098645;27;45392;-72
2022/10/23 03:13:45;;;;;;;;;3.00;3.00;;;;;18.91;63.12;100298.31;5117432;27;45431;-72
2022/10/23 03:16:11;;;;;;;;;2.00;2.00;;;;;18.86;63.24;100275.84;5121281;27;45444;-73
2022/10/23 03:18:36;;;;;;;;;1.67;1.33;;;;;18.96;63.64;100292.84;5117856;27;47202;-72
2022/10/23 03:21:01;;;;;;;;;4.00;2.00;;;;;18.65;63.78;100254.50;5123647;27;50056;-73
2022/10/23 03:23:26;;;;;;;;;5.00;3.33;;;;;18.88;64.10;100305.59;5115484;27;45024;-73
2022/10/23 03:25:53;;;;;;;;;3.67;3.00;;;;;18.76;64.00;100280.47;5103470;27;50169;-73
2022/10/23 03:28:18;;;;;;;;;4.00;2.33;;;;;18.81;64.21;100285.81;5119584;27;45218;-72
2022/10/23 03:30:44;;;;;;;;;4.00;2.67;;;;;18.83;64.27;100285.81;5122839;27;45229;-71
2022/10/23 03:33:09;;;;;;;;;2.00;2.00;;;;;18.62;64.05;100236.47;5114953;27;44975;-72
2022/10/23 03:35:34;;;;;;;;;3.67;3.67;;;;;18.90;64.21;100269.47;5122015;27;56423;-72
2022/10/23 03:38:00;;;;;;;;;5.33;4.33;;;;;18.79;64.32;100255.16;5113012;27;44977;-72
2022/10/23 03:40:25;;;;;;;;;5.00;3.33;;;;;18.81;63.82;100257.84;5113058;27;44918;-72
2022/10/23 03:42:50;;;;;;;;;5.00;4.00;;;;;18.90;64.14;100285.69;5116959;27;45347;-72
2022/10/23 03:45:16;;;;;;;;;3.33;3.00;;;;;18.82;64.51;100286.72;5120226;27;56863;-72
2022/10/23 03:47:41;;;;;;;;;4.00;2.00;;;;;18.82;64.57;100290.28;5121514;27;45740;-72
2022/10/23 03:50:08;;;;;;;;;3.00;2.00;;;;;18.81;64.89;100291.22;5123768;27;45285;-72
2022/10/23 03:52:34;;;;;;;;;2.67;2.67;;;;;18.77;65.04;100281.34;5121490;27;45250;-72
2022/10/23 03:54:59;;;;;;;;;3.67;3.00;;;;;18.73;65.18;100269.69;5126720;27;45848;-72
2022/10/23 03:57:24;;;;;;;;;4.67;3.67;;;;;18.83;64.95;100275.91;5114103;27;52683;-72
2022/10/23 03:59:50;;;;;;;;;3.67;3.00;;;;;18.82;64.89;100284.00;5096966;27;45076;-72
2022/10/23 04:02:15;;;;;;;;;3.33;3.00;;;;;18.82;64.91;100268.66;5124710;27;48764;-72
2022/10/23 04:04:40;;;;;;;;;5.67;3.67;;;;;18.82;64.72;100271.34;5119338;27;45196;-71
2022/10/23 04:07:06;;;;;;;;;6.67;5.00;;;;;18.79;64.97;100288.56;5114064;27;63118;-72
2022/10/23 04:09:31;;;;;;;;;6.00;5.00;;;;;18.70;65.08;100274.25;5116774;27;45328;-73
2022/10/23 04:11:56;;;;;;;;;3.33;3.33;;;;;18.52;64.95;100235.72;5122152;27;48766;-72
2022/10/23 04:14:22;;;;;;;;;2.00;2.00;;;;;18.82;64.99;100282.19;5118929;27;65371;-72
2022/10/23 04:16:47;;;;;;;;;3.67;3.00;;;;;18.88;64.83;100294.78;5127825;27;45202;-72
2022/10/23 04:19:12;;;;;;;;;8.00;4.33;;;;;18.84;64.90;100285.81;5123909;27;60044;-72
2022/10/23 04:21:38;;;;;;;;;4.00;3.00;;;;;18.58;65.02;100240.16;5128406;27;45065;-71
2022/10/23 04:24:03;;;;;;;;;2.33;2.00;;;;;18.82;65.25;100267.75;5112568;27;45128;-72
2022/10/23 04:26:29;;;;;;;;;4.00;4.00;;;;;18.84;65.06;100275.00;5100425;27;45011;-72
2022/10/23 04:28:54;;;;;;;;;5.00;3.00;;;;;18.82;65.57;100292.13;5113924;27;45204;-72
2022/10/23 04:31:20;;;;;;;;;3.33;2.67;;;;;18.79;65.26;100274.09;5122523;27;45044;-72
2022/10/23 04:33:45;;;;;;;;;3.00;3.00;;;;;18.84;65.41;100291.22;5119320;27;54669;-71
2022/10/23 04:36:10;;;;;;;;;4.00;4.00;;;;;18.79;65.18;100283.13;5123337;27;45170;-72
2022/10/23 04:38:35;;;;;;;;;2.00;2.00;;;;;18.82;65.52;100290.28;5118398;27;45068;-72
2022/10/23 04:41:01;;;;;;;;;2.33;2.33;;;;;18.75;65.95;100275.97;5119220;27;51103;-72
2022/10/23 04:43:26;;;;;;;;;3.67;3.00;;;;;18.79;65.83;100274.09;5101933;27;45347;-72
2022/10/23 04:45:51;;;;;;;;;3.33;3.33;;;;;18.71;65.98;100257.09;5115668;27;45033;-72
2022/10/23 04:48:17;;;;;;;;;4.00;4.00;;;;;18.68;66.10;100243.63;5111093;27;45084;-72
2022/10/23 04:50:42;;;;;;;;;5.33;4.00;;;;;18.75;66.18;100261.56;5115237;27;45142;-72
2022/10/23 04:53:08;;;;;;;;;5.33;5.00;;;;;18.71;66.35;100266.13;5120983;27;45017;-72
2022/10/23 04:55:36;;;;;;;;;6.67;5.00;;;;;18.73;66.39;100301.28;5131429;27;45116;-72
2022/10/23 04:58:01;;;;;;;;;2.00;2.00;;;;;18.71;67.05;100320.25;5121976;27;45269;-72
2022/10/23 05:00:26;;;;;;;;;6.67;4.33;;;;;18.70;66.70;100315.72;5117443;27;45160;-72
2022/10/23 05:02:52;;;;;;;;;3.33;2.67;;;;;18.71;66.62;100306.72;5112671;27;57189;-73
2022/10/23 05:05:17;;;;;;;;;6.67;2.00;;;;;18.72;66.81;100310.31;5114620;27;45038;-72
2022/10/23 05:07:42;;;;;;;;;3.33;3.33;;;;;18.74;66.94;100281.41;5115341;27;45260;-72
2022/10/23 05:10:08;;;;;;;;;3.67;2.00;;;;;18.76;66.94;100275.06;5120624;27;44944;-72
2022/10/23 05:12:33;;;;;;;;;5.00;3.00;;;;;18.73;67.32;100280.50;5091945;27;47553;-72
2022/10/23 05:15:00;;;;;;;;;3.00;3.00;;;;;18.70;67.46;100263.44;5116706;27;57463;-72
2022/10/23 05:17:31;;;;;;;;;4.00;3.00;;;;;18.71;67.60;100262.50;5122081;27;45145;-72
2022/10/23 05:20:00;;;;;;;;;4.33;4.00;;;;;18.72;67.60;100262.47;5136357;27;45070;-72
2022/10/23 05:22:31;;;;;;;;;2.00;2.00;;;;;18.76;67.39;100257.94;5125738;27;45150;-72
2022/10/23 05:24:57;;;;;;;;;3.67;3.67;;;;;18.75;67.60;100245.31;5114461;27;45056;-71
2022/10/23 05:27:22;;;;;;;;;3.00;3.00;;;;;18.78;67.52;100256.09;5093149;27;45038;-72
2022/10/23 05:29:48;;;;;;;;;3.00;3.00;;;;;18.76;67.33;100233.59;5117285;27;45080;-72
2022/10/23 05:32:15;;;;;;;;;3.00;2.33;;;;;18.81;67.31;100223.56;5113492;27;64869;-72
2022/10/23 05:34:42;;;;;;;;;5.00;5.00;;;;;18.83;67.50;100219.06;5128845;27;45323;-72
2022/10/23 05:37:11;;;;;;;;;3.00;3.00;;;;;18.84;67.58;100212.72;5111486;27;47349;-72
2022/10/23 05:39:36;;;;;;;;;4.00;4.00;;;;;18.66;67.17;100183.22;5121299;27;45193;-72
2022/10/23 05:42:02;;;;;;;;;4.67;4.67;;;;;18.80;67.58;100202.81;5123408;27;45489;-72
2022/10/23 05:44:27;;;;;;;;;5.33;3.33;;;;;18.73;67.25;100193.91;5110354;27;44892;-72
2022/10/23 05:46:52;;;;;;;;;4.00;3.67;;;;;18.81;67.38;100203.72;5118984;27;45278;-72
2022/10/23 05:49:18;;;;;;;;;6.00;4.33;;;;;18.63;67.47;100172.44;5111738;27;45194;-72
2022/10/23 05:51:43;;;;;;;;;5.33;5.00;;;;;18.72;67.59;100192.13;5125029;27;46721;-72
2022/10/23 05:54:09;;;;;;;;;5.00;3.00;;;;;18.72;67.60;100189.41;5123271;27;45418;-71
2022/10/23 05:56:36;;;;;;;;;4.00;4.00;;;;;18.33;67.50;100126.00;5113806;27;44984;-72
2022/10/23 05:59:02;;;;;;;;;5.00;5.00;;;;;18.68;67.71;100198.50;5129623;27;45042;-72
2022/10/23 06:01:27;;;;;;;;;6.00;4.33;;;;;18.53;67.88;100178.00;5115846;27;45276;-72
2022/10/23 06:03:52;;;;;;;;;4.00;4.00;;;;;18.59;68.02;100191.44;5092198;27;48301;-72
2022/10/23 06:06:18;;;;;;;;;3.00;3.00;;;;;18.65;68.00;100198.56;5118348;27;45270;-72
2022/10/23 06:08:43;;;;;;;;;4.00;3.00;;;;;18.62;68.31;100203.13;5122670;27;45155;-71
2022/10/23 06:11:11;;;;;;;;;2.00;2.00;;;;;18.65;68.09;100211.19;5119958;27;61711;-72
2022/10/23 06:13:37;;;;;;;;;6.67;3.67;;;;;18.51;68.04;100163.63;5118490;27;45418;-71
2022/10/23 06:16:12;;;;;;;;;3.67;3.33;;;;;18.71;67.95;100202.97;5120096;27;45114;-72
2022/10/23 06:18:38;;;;;;;;;4.00;4.00;;;;;18.65;67.86;100198.56;5103663;27;45960;-71
2022/10/23 06:21:03;;;;;;;;;2.67;2.67;;;;;18.54;68.08;100170.78;5090357;27;46198;-72
2022/10/23 06:23:30;;;;;;;;;4.00;2.00;;;;;18.69;67.97;100207.50;5114278;27;45296;-72
2022/10/23 06:25:56;;;;;;;;;7.00;4.00;;;;;18.59;68.04;100194.16;5118800;27;45093;-73
2022/10/23 06:28:21;;;;;;;;;4.33;4.00;;;;;18.62;67.96;100208.53;5116825;27;45250;-71
2022/10/23 06:30:46;;;;;;;;;3.67;3.33;;;;;18.60;68.43;100189.63;5112452;27;45790;-71
2022/10/23 06:33:12;;;;;;;;;5.00;5.00;;;;;18.58;68.41;100186.94;5114048;27;45079;-71
2022/10/23 06:35:37;;;;;;;;;6.00;6.00;;;;;18.51;68.55;100189.75;5111762;27;45371;-70
2022/10/23 06:38:02;;;;;;;;;7.33;5.67;;;;;18.54;68.62;100185.19;5126306;27;45063;-72
2022/10/23 06:40:28;;;;;;;;;5.00;4.00;;;;;18.52;68.67;100187.03;5112440;27;45317;-72
2022/10/23 06:42:55;;;;;;;;;5.00;5.00;;;;;18.48;68.63;100174.47;5112591;27;45297;-72
2022/10/23 06:45:20;;;;;;;;;7.67;5.33;;;;;18.39;68.62;100159.25;5097687;27;46671;-70
2022/10/23 06:47:48;;;;;;;;;11.33;5.33;;;;;18.47;68.68;100172.69;5105617;27;45511;-70
2022/10/23 06:50:14;;;;;;;;;4.67;4.00;;;;;18.49;68.76;100169.94;5119193;27;45066;-72
2022/10/23 06:52:39;;;;;;;;;7.00;5.67;;;;;18.47;68.79;100180.78;5112479;27;45006;-72
2022/10/23 06:55:05;;;;;;;;;3.67;1.67;;;;;18.41;68.94;100181.78;5115034;27;57668;-71
2022/10/23 06:57:30;;;;;;;;;7.33;5.67;;;;;18.40;68.76;100171.88;5112004;27;45251;-72
2022/10/23 06:59:55;;;;;;;;;4.67;4.33;;;;;18.47;68.83;100175.38;5116160;27;47031;-71
2022/10/23 07:02:20;;;;;;;;;4.33;4.33;;;;;18.47;68.91;100183.50;5114648;27;46450;-72
2022/10/23 07:04:46;;;;;;;;;6.67;6.00;;;;;18.48;68.88;100163.66;5108336;27;45524;-73
2022/10/23 07:07:11;;;;;;;;;8.67;6.33;;;;;18.54;68.98;100155.41;5121026;27;45037;-71
2022/10/23 07:09:36;;;;;;;;;5.00;5.00;;;;;18.54;68.76;100165.34;5123972;27;48984;-70
2022/10/23 07:12:02;;;;;;;;;8.67;5.67;;;;;18.56;68.56;100161.72;5114883;27;45502;-72
2022/10/23 07:14:30;;;;;;;;;16.67;14.00;;;;;18.59;68.59;100152.66;5104382;27;45518;-72
2022/10/23 07:16:56;;;;;;;;;9.00;6.00;;;;;18.62;68.34;100158.00;5104266;27;45405;-71
2022/10/23 07:19:22;;;;;;;;;8.00;6.67;;;;;18.48;67.95;100128.50;5122940;27;45621;-72
2022/10/23 07:21:47;;;;;;;;;6.00;4.67;;;;;18.56;68.20;100156.31;5109083;27;45689;-71
2022/10/23 07:24:12;;;;;;;;;9.67;5.00;;;;;18.58;68.36;100164.41;5125530;27;45222;-71
2022/10/23 07:26:38;;;;;;;;;5.00;5.00;;;;;18.60;67.92;100165.28;5120436;27;45142;-72
2022/10/23 07:29:03;;;;;;;;;5.33;5.00;;;;;18.56;68.12;100155.41;5109144;27;45154;-72
2022/10/23 07:31:28;;;;;;;;;6.67;6.00;;;;;18.57;68.56;100168.91;5096648;27;45179;-72
2022/10/23 07:33:54;;;;;;;;;7.00;5.33;;;;;18.52;68.23;100142.84;5111667;27;45436;-71
2022/10/23 07:36:19;;;;;;;;;3.67;3.33;;;;;18.66;68.04;100159.78;5127821;27;45201;-72
2022/10/23 07:38:45;;;;;;;;;6.33;5.00;;;;;18.66;67.82;100156.16;5113404;27;48145;-72
2022/10/23 07:41:10;;;;;;;;;7.00;6.00;;;;;18.49;67.96;100132.97;5109897;27;45446;-71
2022/10/23 07:43:36;;;;;;;;;9.67;5.00;;;;;18.49;68.11;100130.25;5108100;27;45514;-72
2022/10/23 07:46:02;;;;;;;;;5.33;5.33;;;;;18.52;68.25;100142.84;5115489;27;45510;-70
2022/10/23 07:48:27;;;;;;;;;5.33;5.33;;;;;18.57;68.00;100144.56;5091331;27;45998;-72
2022/10/23 07:50:57;;;;;;;;;6.67;6.67;;;;;18.61;67.96;100145.44;5110452;27;45182;-71
2022/10/23 07:53:24;;;;;;;;;7.33;5.67;;;;;18.60;67.77;100149.03;5105863;27;45378;-71
2022/10/23 07:55:56;;;;;;;;;8.67;5.67;;;;;18.62;67.77;100146.31;5113146;27;45679;-71
2022/10/23 07:58:22;;;;;;;;;4.67;4.67;;;;;18.62;67.96;100139.06;5115272;27;45320;-71
2022/10/23 08:00:57;;;;;;;;;7.33;5.67;;;;;18.63;67.75;100143.56;5112157;27;44947;-71
2022/10/23 08:03:30;;;;;;;;;11.33;10.33;;;;;18.56;67.65;100129.25;5104184;27;45506;-72
2022/10/23 08:05:56;;;;;;;;;4.67;4.67;;;;;18.68;67.60;100148.91;5114701;27;45472;-69
2022/10/23 08:08:22;;;;;;;;;8.33;6.67;;;;;18.69;67.46;100153.41;5086072;27;47831;-69
2022/10/23 08:10:50;;;;;;;;;5.00;5.00;;;;;18.65;67.42;100135.44;5111968;27;45565;-70
2022/10/23 08:13:16;;;;;;;;;9.67;5.33;;;;;18.65;67.51;100144.44;5111651;27;45201;-71
2022/10/23 08:15:43;;;;;;;;;6.00;6.00;;;;;18.69;67.49;100138.06;5106349;27;45317;-71
2022/10/23 08:18:08;;;;;;;;;9.00;8.00;;;;;18.72;67.19;100127.16;5110387;27;45625;-72
2022/10/23 08:20:40;;;;;;;;;3.00;2.33;;;;;18.63;66.91;100111.13;5115505;27;46189;-71
2022/10/23 08:23:06;;;;;;;;;6.33;6.33;;;;;18.83;66.63;100134.22;5116436;27;45252;-72
2022/10/23 08:25:31;;;;;;;;;8.00;6.00;;;;;18.75;66.58;100101.88;5114323;27;45066;-70
2022/10/23 08:27:57;;;;;;;;;5.00;5.00;;;;;18.85;66.37;100121.59;5114639;27;45505;-70
2022/10/23 08:30:22;;;;;;;;;9.67;6.00;;;;;19.04;66.21;100124.84;5116835;27;62260;-72
2022/10/23 08:32:47;;;;;;;;;6.67;5.00;;;;;19.05;65.86;100116.69;5115358;27;45115;-71
2022/10/23 08:35:12;;;;;;;;;7.00;5.00;;;;;19.02;65.83;100116.75;5100168;27;45201;-72
2022/10/23 08:37:38;;;;;;;;;7.00;6.67;;;;;19.05;65.61;100118.53;5118483;27;56596;-71
2022/10/23 08:40:03;;;;;;;;;6.33;4.00;;;;;19.05;65.31;100115.81;5116483;27;58330;-70
2022/10/23 08:42:29;;;;;;;;;9.00;7.67;;;;;19.00;65.65;100104.19;5128688;27;45135;-71
2022/10/23 08:45:04;;;;;;;;;7.33;5.00;;;;;19.08;65.31;100119.34;5110797;27;45223;-72
2022/10/23 08:47:39;;;;;;;;;7.00;5.33;;;;;19.11;65.33;100111.16;5115035;27;45836;-70
2022/10/23 08:50:31;;;;;;;;;5.00;5.00;;;;;19.20;65.26;100126.34;5099131;27;44995;-71
2022/10/23 08:53:01;;;;;;;;;6.33;5.33;;;;;19.23;64.79;100122.69;5102631;27;45344;-71
2022/10/23 08:55:34;;;;;;;;;7.67;5.33;;;;;19.28;64.89;100121.66;5121851;27;45088;-71
2022/10/23 08:58:22;;;;;;;;;5.33;5.33;;;;;19.34;64.78;100116.16;5114905;27;45822;-70
2022/10/23 09:00:49;;;;;;;;;6.67;6.00;;;;;19.27;64.63;100100.94;5118029;27;45363;-70
2022/10/23 09:03:15;;;;;;;;;4.00;3.00;;;;;19.45;64.11;100117.75;5093986;27;45207;-71
2022/10/23 09:05:46;;;;;;;;;4.00;4.00;;;;;19.49;63.94;100109.53;5112524;27;45158;-71
2022/10/23 09:09:06;;;;;;;;;5.33;3.00;;;;;19.52;63.72;100112.16;5113897;27;45635;-69
2022/10/23 09:11:39;;;;;;;;;5.33;4.33;;;;;19.57;63.63;100116.59;5085235;27;45471;-70
2022/10/23 09:14:25;;;;;;;;;4.33;3.33;;;;;19.63;63.53;100122.81;5104619;27;45254;-70
2022/10/23 09:17:16;;;;;;;;;5.00;4.67;;;;;19.68;63.05;100129.00;5107190;27;45198;-70
2022/10/23 09:19:44;;;;;;;;;5.33;4.67;;;;;19.72;63.06;100109.97;5105335;27;46255;-70
2022/10/23 09:22:10;;;;;;;;;5.33;3.67;;;;;19.83;62.93;100108.84;5109366;27;45699;-72
2022/10/23 09:24:36;;;;;;;;;10.67;6.67;;;;;19.87;62.57;100101.53;5118263;27;45249;-71
2022/10/23 09:27:01;;;;;;;;;6.33;5.67;;;;;19.70;62.67;100066.66;5112833;27;45312;-71
2022/10/23 09:29:31;;;;;;;;;7.00;4.67;;;;;20.00;61.94;100094.91;5116302;27;45699;-71
2022/10/23 09:31:59;;;;;;;;;4.67;4.67;;;;;20.03;61.75;100102.97;5110070;27;45459;-71
2022/10/23 09:34:27;;;;;;;;;9.00;8.67;;;;;20.03;61.50;100085.81;5110136;27;45094;-71
2022/10/23 09:37:02;;;;;;;;;9.00;6.00;;;;;20.15;61.50;100090.94;5117190;27;45115;-70
2022/10/23 09:39:27;;;;;;;;;7.33;7.00;;;;;20.24;60.97;100084.41;5118775;27;45281;-72
2022/10/23 09:41:53;;;;;;;;;7.67;5.00;;;;;20.19;60.58;100080.91;5122516;27;46705;-72
2022/10/23 09:44:30;;;;;;;;;4.33;4.00;;;;;20.26;60.45;100071.72;5111040;27;45174;-72
2022/10/23 09:47:10;;;;;;;;;8.00;5.00;;;;;20.38;60.76;100092.22;5108257;27;45015;-72
2022/10/23 09:49:39;;;;;;;;;4.67;4.67;;;;;20.42;60.14;100089.38;5115198;27;45700;-72
2022/10/23 09:52:23;;;;;;;;;5.33;3.67;;;;;20.41;59.86;100093.03;5104210;27;45147;-72
2022/10/23 09:55:00;;;;;;;;;4.33;4.33;;;;;20.48;59.82;100076.59;5111699;27;45178;-72
2022/10/23 09:57:41;;;;;;;;;4.00;4.00;;;;;20.52;60.16;100068.31;5108223;27;45249;-70
2022/10/23 10:00:12;;;;;;;;;7.33;6.00;;;;;20.68;59.02;100085.16;5112747;27;45395;-72
2022/10/23 10:02:39;;;;;;;;;5.00;4.00;;;;;20.77;58.66;100074.06;5112647;27;45135;-72
2022/10/23 10:05:32;;;;;;;;;6.00;5.33;;;;;20.85;58.21;100072.94;5109855;27;44934;-71
2022/10/23 10:08:13;;;;;;;;;8.33;5.33;;;;;20.92;58.01;100066.41;5105258;27;45867;-73
2022/10/23 10:10:44;;;;;;;;;5.00;4.00;;;;;20.77;57.50;100027.00;5111589;27;45656;-72
2022/10/23 10:13:31;;;;;;;;;9.00;8.00;;;;;21.04;57.22;100068.81;5111086;27;45226;-71
2022/10/23 10:16:18;;;;;;;;;8.00;5.33;;;;;20.99;56.79;100035.47;5132122;27;45172;-71
2022/10/23 10:19:01;;;;;;;;;4.33;4.33;;;;;21.13;56.70;100060.38;5118216;27;45087;-72
2022/10/23 10:21:33;;;;;;;;;6.00;6.00;;;;;21.05;56.25;100038.00;5116859;27;45879;-73
2022/10/23 10:24:04;;;;;;;;;4.00;4.00;;;;;21.20;56.30;100055.69;5113444;27;45175;-72
2022/10/23 10:26:30;;;;;;;;;5.00;5.00;;;;;21.24;56.12;100054.66;5117943;27;45135;-73
2022/10/23 10:29:24;;;;;;;;;5.67;3.33;;;;;21.29;56.17;100046.38;5126194;27;45130;-72
2022/10/23 10:32:08;;;;;;;;;5.33;5.33;;;;;21.34;56.27;100052.56;5107219;27;45790;-72
2022/10/23 10:34:53;;;;;;;;;4.00;4.00;;;;;21.26;56.11;100033.75;5115061;27;45298;-71
2022/10/23 10:37:33;;;;;;;;;7.00;5.33;;;;;21.24;55.99;100023.91;5124754;27;45131;-71
2022/10/23 10:40:20;;;;;;;;;9.33;6.33;;;;;21.39;55.88;100038.84;5123270;27;44962;-71
2022/10/23 10:43:14;;;;;;;;;4.67;4.67;;;;;21.50;55.36;100040.34;5113332;27;46436;-71
2022/10/23 10:45:42;;;;;;;;;6.67;6.00;;;;;21.60;55.44;100054.56;5113510;27;45692;-71
2022/10/23 10:48:13;;;;;;;;;7.00;5.00;;;;;21.65;55.45;100044.41;5118499;27;45214;-72
2022/10/23 10:50:51;;;;;;;;;5.00;5.00;;;;;21.42;55.09;99993.44;5133609;27;45122;-72
2022/10/23 10:53:16;;;;;;;;;6.00;3.67;;;;;21.77;55.04;100028.66;5117427;27;45313;-71
2022/10/23 10:55:45;;;;;;;;;6.00;4.00;;;;;21.79;54.84;100027.66;5115561;27;45210;-71
2022/10/23 10:58:46;;;;;;;;;3.33;3.00;;;;;21.86;54.58;100023.84;5126536;27;45102;-71
2022/10/23 11:01:31;;;;;;;;;5.00;4.00;;;;;21.83;54.36;100015.78;5116113;27;45213;-72
2022/10/23 11:04:11;;;;;;;;;4.67;4.00;;;;;22.00;54.05;100034.25;5117343;27;45383;-71
2022/10/23 11:06:38;;;;;;;;;3.00;3.00;;;;;21.90;53.61;99991.97;5124460;27;45120;-72
2022/10/23 11:09:14;;;;;;;;;4.33;4.00;;;;;22.02;53.47;99993.41;5128865;27;44859;-71
2022/10/23 11:11:40;;;;;;;;;4.00;4.00;;;;;22.24;53.22;100005.38;5110503;27;45372;-71
2022/10/23 11:14:13;;;;;;;;;6.33;4.33;;;;;22.34;52.77;100005.06;5106810;27;46068;-72
2022/10/23 11:16:41;;;;;;;;;6.00;4.33;;;;;22.31;52.36;99995.19;5127455;27;45095;-70
2022/10/23 11:19:16;;;;;;;;;4.00;3.00;;;;;22.37;52.28;100002.25;5127345;27;45239;-72
2022/10/23 11:21:51;;;;;;;;;9.33;5.00;;;;;22.29;52.67;99997.09;5117286;27;45311;-71
2022/10/23 11:24:31;;;;;;;;;3.67;3.67;;;;;22.35;52.21;99979.66;5127353;27;45588;-69
2022/10/23 11:27:31;;;;;;;;;6.00;5.00;;;;;22.43;52.12;99980.25;5115403;27;44909;-71
2022/10/23 11:30:18;;;;;;;;;6.00;4.67;;;;;22.43;52.48;99977.53;5090327;27;45165;-72
2022/10/23 11:33:05;;;;;;;;;7.67;3.67;;;;;22.45;52.12;99973.84;5115346;27;45837;-71
2022/10/23 11:35:56;;;;;;;;;9.00;5.00;;;;;22.51;52.36;99974.56;5117085;27;45682;-72
2022/10/23 11:38:37;;;;;;;;;6.67;5.00;;;;;22.52;52.13;99979.97;5106837;27;45272;-71